<?xml version="1.0" encoding="UTF-8" standalone="no" ?>
<gpx xmlns="http://www.topografix.com/GPX/1/1" xmlns:xsi="http://www.w3.org/2001/XMLSchema-instance" xsi:schemaLocation="http://www.topografix.com/GPX/1/1 http://www.topografix.com/GPX/1/1/gpx.xsd" version="1.1" creator="VisuGPX - https://www.visugpx.com">
  <metadata>
    <name>Minerve - gorges du Briant</name>
    <desc><![CDATA[2017-07 - Minerve - gorges du Briant

[b]album[/b] : [url]https://photos.app.goo.gl/QuPaasQsQvxiQUjh1[/url]
[img]https://2.bp.blogspot.com/-c9m-m4RwwJM/WWzFySU94bI/AAAAAAAAWcI/ktmTYu9kls0bWDqRI9qON1OGpfbmO4gtwCLcBGAs/s1600/2017-07-10_minerve_gorges-briant_i.JPG[/img]
[b]Idées de randonnées dans la même région[/b]
Parcours : [url]https://www.visugpx.com/membres/24856/littoral/[/url]
Photos : [url]https://jcvertygo.blogspot.com/p/littoral.html[/url]]]></desc>
  </metadata>
  <trk>
    <name><![CDATA[Minerve - gorges du Briant_1]]></name>
    <trkseg>
      <trkpt lat="43.35134" lon="2.74014">
        <ele>175.2</ele>
        <time>2017-07-10T10:58:34Z</time>
      </trkpt>
      <trkpt lat="43.35133" lon="2.7402">
        <ele>175.2</ele>
        <time>2017-07-10T10:58:39Z</time>
      </trkpt>
      <trkpt lat="43.35133" lon="2.74028">
        <ele>182.57372100574</ele>
        <time>2017-07-10T10:58:44Z</time>
      </trkpt>
      <trkpt lat="43.35135" lon="2.74035">
        <ele>182.57372100574</ele>
        <time>2017-07-10T10:58:49Z</time>
      </trkpt>
      <trkpt lat="43.35138" lon="2.74041">
        <ele>183.63264105731</ele>
        <time>2017-07-10T10:58:54Z</time>
      </trkpt>
      <trkpt lat="43.35141" lon="2.74044">
        <ele>183.63264105731</ele>
        <time>2017-07-10T10:58:59Z</time>
      </trkpt>
      <trkpt lat="43.35145" lon="2.74049">
        <ele>183.63264105731</ele>
        <time>2017-07-10T10:59:04Z</time>
      </trkpt>
      <trkpt lat="43.35151" lon="2.74053">
        <ele>184.24319372442</ele>
        <time>2017-07-10T10:59:09Z</time>
      </trkpt>
      <trkpt lat="43.35157" lon="2.74054">
        <ele>184.24319372442</ele>
        <time>2017-07-10T10:59:14Z</time>
      </trkpt>
      <trkpt lat="43.35163" lon="2.74056">
        <ele>184.60598614793</ele>
        <time>2017-07-10T10:59:19Z</time>
      </trkpt>
      <trkpt lat="43.35194" lon="2.74053">
        <ele>185.10906957068</ele>
        <time>2017-07-10T10:59:56Z</time>
      </trkpt>
      <trkpt lat="43.35225" lon="2.74015">
        <ele>187.22612345865</ele>
        <time>2017-07-10T11:00:22Z</time>
      </trkpt>
      <trkpt lat="43.35253" lon="2.73952">
        <ele>190.28981245752</ele>
        <time>2017-07-10T11:01:10Z</time>
      </trkpt>
      <trkpt lat="43.35297" lon="2.73913">
        <ele>194.41935724402</ele>
        <time>2017-07-10T11:02:25Z</time>
      </trkpt>
      <trkpt lat="43.35322" lon="2.73901">
        <ele>198.25652819152</ele>
        <time>2017-07-10T11:02:26Z</time>
      </trkpt>
      <trkpt lat="43.35334" lon="2.73899">
        <ele>201.8153915876</ele>
        <time>2017-07-10T11:02:39Z</time>
      </trkpt>
      <trkpt lat="43.35339" lon="2.73896">
        <ele>201.8153915876</ele>
        <time>2017-07-10T11:02:44Z</time>
      </trkpt>
      <trkpt lat="43.35348" lon="2.73892">
        <ele>205.09452338281</ele>
        <time>2017-07-10T11:03:04Z</time>
      </trkpt>
      <trkpt lat="43.35411" lon="2.74005">
        <ele>208.49620643427</ele>
        <time>2017-07-10T11:04:53Z</time>
      </trkpt>
      <trkpt lat="43.35411" lon="2.74016">
        <ele>208.49620643427</ele>
        <time>2017-07-10T11:04:53Z</time>
      </trkpt>
      <trkpt lat="43.35504" lon="2.74089">
        <ele>212.752649909</ele>
        <time>2017-07-10T11:06:40Z</time>
      </trkpt>
      <trkpt lat="43.35518" lon="2.74097">
        <ele>216.54070578715</ele>
        <time>2017-07-10T11:06:40Z</time>
      </trkpt>
      <trkpt lat="43.35525" lon="2.74106">
        <ele>219.85569265293</ele>
        <time>2017-07-10T11:06:49Z</time>
      </trkpt>
      <trkpt lat="43.35534" lon="2.74128">
        <ele>222.76939463136</ele>
        <time>2017-07-10T11:07:08Z</time>
      </trkpt>
      <trkpt lat="43.35535" lon="2.74131">
        <ele>222.76939463136</ele>
        <time>2017-07-10T11:07:10Z</time>
      </trkpt>
      <trkpt lat="43.35537" lon="2.7415">
        <ele>225.30499747302</ele>
        <time>2017-07-10T11:07:32Z</time>
      </trkpt>
      <trkpt lat="43.35547" lon="2.74211">
        <ele>227.66650456815</ele>
        <time>2017-07-10T11:08:02Z</time>
      </trkpt>
      <trkpt lat="43.35549" lon="2.74217">
        <ele>227.66650456815</ele>
        <time>2017-07-10T11:08:06Z</time>
      </trkpt>
      <trkpt lat="43.35556" lon="2.74243">
        <ele>229.70115859171</ele>
        <time>2017-07-10T11:08:31Z</time>
      </trkpt>
      <trkpt lat="43.35561" lon="2.74256">
        <ele>231.41891079631</ele>
        <time>2017-07-10T11:08:31Z</time>
      </trkpt>
      <trkpt lat="43.35563" lon="2.74268">
        <ele>232.798986957</ele>
        <time>2017-07-10T11:08:39Z</time>
      </trkpt>
      <trkpt lat="43.35563" lon="2.74286">
        <ele>233.93040879271</ele>
        <time>2017-07-10T11:09:05Z</time>
      </trkpt>
      <trkpt lat="43.35564" lon="2.74291">
        <ele>233.93040879271</ele>
        <time>2017-07-10T11:09:05Z</time>
      </trkpt>
      <trkpt lat="43.35563" lon="2.74294">
        <ele>233.93040879271</ele>
        <time>2017-07-10T11:09:06Z</time>
      </trkpt>
      <trkpt lat="43.3557" lon="2.74316">
        <ele>234.62060688308</ele>
        <time>2017-07-10T11:09:30Z</time>
      </trkpt>
      <trkpt lat="43.35572" lon="2.74319">
        <ele>234.62060688308</ele>
        <time>2017-07-10T11:09:47Z</time>
      </trkpt>
      <trkpt lat="43.3558" lon="2.74332">
        <ele>234.87801112812</ele>
        <time>2017-07-10T11:09:47Z</time>
      </trkpt>
      <trkpt lat="43.35583" lon="2.74335">
        <ele>234.87801112812</ele>
        <time>2017-07-10T11:10:07Z</time>
      </trkpt>
      <trkpt lat="43.35587" lon="2.74342">
        <ele>235.16045055461</ele>
        <time>2017-07-10T11:10:08Z</time>
      </trkpt>
      <trkpt lat="43.35595" lon="2.74377">
        <ele>235.09245464245</ele>
        <time>2017-07-10T11:10:38Z</time>
      </trkpt>
      <trkpt lat="43.35593" lon="2.74398">
        <ele>234.85262818703</ele>
        <time>2017-07-10T11:10:49Z</time>
      </trkpt>
      <trkpt lat="43.35648" lon="2.74405">
        <ele>233.93537241666</ele>
        <time>2017-07-10T11:12:16Z</time>
      </trkpt>
      <trkpt lat="43.35588" lon="2.74443">
        <ele>231.81402565751</ele>
        <time>2017-07-10T11:13:26Z</time>
      </trkpt>
      <trkpt lat="43.3558" lon="2.74447">
        <ele>231.81402565751</ele>
        <time>2017-07-10T11:13:33Z</time>
      </trkpt>
      <trkpt lat="43.35569" lon="2.74462">
        <ele>229.34590240213</ele>
        <time>2017-07-10T11:13:50Z</time>
      </trkpt>
      <trkpt lat="43.35567" lon="2.74464">
        <ele>229.34590240213</ele>
        <time>2017-07-10T11:13:50Z</time>
      </trkpt>
      <trkpt lat="43.35538" lon="2.74497">
        <ele>226.19820066227</ele>
        <time>2017-07-10T11:14:49Z</time>
      </trkpt>
      <trkpt lat="43.35536" lon="2.74514">
        <ele>223.11846629346</ele>
        <time>2017-07-10T11:15:09Z</time>
      </trkpt>
      <trkpt lat="43.35507" lon="2.74555">
        <ele>220.16005210785</ele>
        <time>2017-07-10T11:15:55Z</time>
      </trkpt>
      <trkpt lat="43.355" lon="2.74562">
        <ele>220.16005210785</ele>
        <time>2017-07-10T11:15:55Z</time>
      </trkpt>
      <trkpt lat="43.35493" lon="2.74588">
        <ele>216.94381323435</ele>
        <time>2017-07-10T11:16:24Z</time>
      </trkpt>
      <trkpt lat="43.35489" lon="2.74589">
        <ele>216.94381323435</ele>
        <time>2017-07-10T11:16:39Z</time>
      </trkpt>
      <trkpt lat="43.35485" lon="2.74593">
        <ele>213.21438503181</ele>
        <time>2017-07-10T11:16:44Z</time>
      </trkpt>
      <trkpt lat="43.35484" lon="2.74596">
        <ele>213.21438503181</ele>
        <time>2017-07-10T11:16:49Z</time>
      </trkpt>
      <trkpt lat="43.35481" lon="2.74599">
        <ele>213.21438503181</ele>
        <time>2017-07-10T11:16:54Z</time>
      </trkpt>
      <trkpt lat="43.35477" lon="2.74602">
        <ele>209.57387114951</ele>
        <time>2017-07-10T11:16:59Z</time>
      </trkpt>
      <trkpt lat="43.35474" lon="2.74605">
        <ele>209.57387114951</ele>
        <time>2017-07-10T11:17:04Z</time>
      </trkpt>
      <trkpt lat="43.35471" lon="2.74609">
        <ele>209.57387114951</ele>
        <time>2017-07-10T11:17:09Z</time>
      </trkpt>
      <trkpt lat="43.35411" lon="2.74655">
        <ele>205.71854630686</ele>
        <time>2017-07-10T11:18:44Z</time>
      </trkpt>
      <trkpt lat="43.35415" lon="2.74651">
        <ele>205.71854630686</ele>
        <time>2017-07-10T11:18:52Z</time>
      </trkpt>
      <trkpt lat="43.35416" lon="2.74637">
        <ele>202.05757447094</ele>
        <time>2017-07-10T11:19:01Z</time>
      </trkpt>
      <trkpt lat="43.35417" lon="2.74636">
        <ele>202.05757447094</ele>
        <time>2017-07-10T11:19:04Z</time>
      </trkpt>
      <trkpt lat="43.35369" lon="2.74688">
        <ele>198.92309149254</ele>
        <time>2017-07-10T11:23:09Z</time>
      </trkpt>
      <trkpt lat="43.35363" lon="2.74707">
        <ele>196.05525819407</ele>
        <time>2017-07-10T11:23:24Z</time>
      </trkpt>
      <trkpt lat="43.35373" lon="2.74758">
        <ele>193.11964476404</ele>
        <time>2017-07-10T11:24:42Z</time>
      </trkpt>
      <trkpt lat="43.35359" lon="2.7476">
        <ele>190.26490810744</ele>
        <time>2017-07-10T11:24:42Z</time>
      </trkpt>
      <trkpt lat="43.35351" lon="2.74756">
        <ele>190.26490810744</ele>
        <time>2017-07-10T11:25:00Z</time>
      </trkpt>
      <trkpt lat="43.3534" lon="2.74763">
        <ele>187.42610261522</ele>
        <time>2017-07-10T11:25:33Z</time>
      </trkpt>
      <trkpt lat="43.35378" lon="2.74781">
        <ele>184.21653457987</ele>
        <time>2017-07-10T11:26:26Z</time>
      </trkpt>
      <trkpt lat="43.35378" lon="2.74781">
        <ele>184.21653457987</ele>
        <time>2017-07-10T11:26:26Z</time>
      </trkpt>
      <trkpt lat="43.35362" lon="2.74811">
        <ele>180.21275901101</ele>
        <time>2017-07-10T11:27:23Z</time>
      </trkpt>
      <trkpt lat="43.35362" lon="2.74811">
        <ele>180.21275901101</ele>
        <time>2017-07-10T11:27:24Z</time>
      </trkpt>
      <trkpt lat="43.35362" lon="2.7481">
        <ele>180.21275901101</ele>
        <time>2017-07-10T11:27:33Z</time>
      </trkpt>
      <trkpt lat="43.35366" lon="2.74814">
        <ele>180.21275901101</ele>
        <time>2017-07-10T11:27:59Z</time>
      </trkpt>
      <trkpt lat="43.35357" lon="2.74821">
        <ele>176.24122726095</ele>
        <time>2017-07-10T11:27:59Z</time>
      </trkpt>
      <trkpt lat="43.35353" lon="2.74819">
        <ele>176.24122726095</ele>
        <time>2017-07-10T11:29:17Z</time>
      </trkpt>
      <trkpt lat="43.35348" lon="2.7482">
        <ele>170.93939496751</ele>
        <time>2017-07-10T11:29:18Z</time>
      </trkpt>
      <trkpt lat="43.35354" lon="2.74824">
        <ele>170.93939496751</ele>
        <time>2017-07-10T11:30:20Z</time>
      </trkpt>
      <trkpt lat="43.35353" lon="2.74821">
        <ele>166.08298572931</ele>
        <time>2017-07-10T11:30:20Z</time>
      </trkpt>
      <trkpt lat="43.35325" lon="2.74808">
        <ele>162.12528620533</ele>
        <time>2017-07-10T11:31:24Z</time>
      </trkpt>
      <trkpt lat="43.35311" lon="2.74811">
        <ele>158.63819852538</ele>
        <time>2017-07-10T11:31:39Z</time>
      </trkpt>
      <trkpt lat="43.35296" lon="2.74815">
        <ele>155.67239554591</ele>
        <time>2017-07-10T11:31:58Z</time>
      </trkpt>
      <trkpt lat="43.3529" lon="2.74818">
        <ele>155.67239554591</ele>
        <time>2017-07-10T11:32:19Z</time>
      </trkpt>
      <trkpt lat="43.35289" lon="2.7482">
        <ele>155.67239554591</ele>
        <time>2017-07-10T11:32:19Z</time>
      </trkpt>
      <trkpt lat="43.35321" lon="2.74854">
        <ele>154.19198579061</ele>
        <time>2017-07-10T11:33:30Z</time>
      </trkpt>
      <trkpt lat="43.35343" lon="2.74871">
        <ele>153.58579624636</ele>
        <time>2017-07-10T11:34:53Z</time>
      </trkpt>
      <trkpt lat="43.35356" lon="2.74891">
        <ele>153.39027886215</ele>
        <time>2017-07-10T11:35:14Z</time>
      </trkpt>
      <trkpt lat="43.35357" lon="2.74895">
        <ele>153.39027886215</ele>
        <time>2017-07-10T11:35:29Z</time>
      </trkpt>
      <trkpt lat="43.3536" lon="2.74899">
        <ele>153.39027886215</ele>
        <time>2017-07-10T11:35:34Z</time>
      </trkpt>
      <trkpt lat="43.35363" lon="2.74904">
        <ele>153.31191157701</ele>
        <time>2017-07-10T11:35:39Z</time>
      </trkpt>
      <trkpt lat="43.35368" lon="2.74906">
        <ele>153.31191157701</ele>
        <time>2017-07-10T11:35:44Z</time>
      </trkpt>
      <trkpt lat="43.35369" lon="2.7491">
        <ele>153.31191157701</ele>
        <time>2017-07-10T11:35:49Z</time>
      </trkpt>
      <trkpt lat="43.35372" lon="2.74912">
        <ele>153.51681263273</ele>
        <time>2017-07-10T11:35:54Z</time>
      </trkpt>
      <trkpt lat="43.35378" lon="2.74914">
        <ele>153.51681263273</ele>
        <time>2017-07-10T11:35:59Z</time>
      </trkpt>
      <trkpt lat="43.35383" lon="2.74916">
        <ele>153.90118635127</ele>
        <time>2017-07-10T11:36:04Z</time>
      </trkpt>
      <trkpt lat="43.35387" lon="2.74919">
        <ele>153.90118635127</ele>
        <time>2017-07-10T11:36:09Z</time>
      </trkpt>
      <trkpt lat="43.35415" lon="2.74917">
        <ele>154.50429722724</ele>
        <time>2017-07-10T11:37:08Z</time>
      </trkpt>
      <trkpt lat="43.35409" lon="2.7489">
        <ele>155.16707134866</ele>
        <time>2017-07-10T11:38:00Z</time>
      </trkpt>
      <trkpt lat="43.35459" lon="2.74843">
        <ele>156.75905255304</ele>
        <time>2017-07-10T11:39:00Z</time>
      </trkpt>
      <trkpt lat="43.35477" lon="2.74811">
        <ele>158.48034027861</ele>
        <time>2017-07-10T11:39:39Z</time>
      </trkpt>
      <trkpt lat="43.35478" lon="2.74809">
        <ele>158.48034027861</ele>
        <time>2017-07-10T11:39:57Z</time>
      </trkpt>
      <trkpt lat="43.35483" lon="2.74806">
        <ele>158.48034027861</ele>
        <time>2017-07-10T11:40:09Z</time>
      </trkpt>
      <trkpt lat="43.3549" lon="2.74795">
        <ele>160.29653676734</ele>
        <time>2017-07-10T11:40:33Z</time>
      </trkpt>
      <trkpt lat="43.35494" lon="2.74794">
        <ele>160.29653676734</ele>
        <time>2017-07-10T11:40:33Z</time>
      </trkpt>
      <trkpt lat="43.35499" lon="2.7479">
        <ele>162.35399516211</ele>
        <time>2017-07-10T11:40:54Z</time>
      </trkpt>
      <trkpt lat="43.35536" lon="2.74751">
        <ele>165.17070278839</ele>
        <time>2017-07-10T11:42:19Z</time>
      </trkpt>
      <trkpt lat="43.35543" lon="2.74744">
        <ele>168.2019363816</ele>
        <time>2017-07-10T11:42:25Z</time>
      </trkpt>
      <trkpt lat="43.35546" lon="2.7474">
        <ele>168.2019363816</ele>
        <time>2017-07-10T11:42:25Z</time>
      </trkpt>
      <trkpt lat="43.35574" lon="2.74733">
        <ele>171.68378403357</ele>
        <time>2017-07-10T11:43:44Z</time>
      </trkpt>
      <trkpt lat="43.35588" lon="2.74712">
        <ele>174.76030702785</ele>
        <time>2017-07-10T11:43:44Z</time>
      </trkpt>
      <trkpt lat="43.35595" lon="2.74684">
        <ele>177.67271569548</ele>
        <time>2017-07-10T11:44:05Z</time>
      </trkpt>
      <trkpt lat="43.35597" lon="2.74677">
        <ele>177.67271569548</ele>
        <time>2017-07-10T11:44:09Z</time>
      </trkpt>
      <trkpt lat="43.35601" lon="2.74663">
        <ele>180.49674241113</ele>
        <time>2017-07-10T11:44:26Z</time>
      </trkpt>
      <trkpt lat="43.35627" lon="2.74622">
        <ele>183.73997196161</ele>
        <time>2017-07-10T11:45:30Z</time>
      </trkpt>
      <trkpt lat="43.35631" lon="2.74617">
        <ele>183.73997196161</ele>
        <time>2017-07-10T11:45:30Z</time>
      </trkpt>
      <trkpt lat="43.35637" lon="2.74609">
        <ele>186.95053995975</ele>
        <time>2017-07-10T11:45:47Z</time>
      </trkpt>
      <trkpt lat="43.35645" lon="2.74604">
        <ele>186.95053995975</ele>
        <time>2017-07-10T11:45:47Z</time>
      </trkpt>
      <trkpt lat="43.35677" lon="2.74569">
        <ele>190.55650222676</ele>
        <time>2017-07-10T11:46:34Z</time>
      </trkpt>
      <trkpt lat="43.35678" lon="2.74569">
        <ele>190.55650222676</ele>
        <time>2017-07-10T11:46:34Z</time>
      </trkpt>
      <trkpt lat="43.35688" lon="2.74557">
        <ele>194.18145064935</ele>
        <time>2017-07-10T11:46:52Z</time>
      </trkpt>
      <trkpt lat="43.35744" lon="2.74528">
        <ele>199.50930583683</ele>
        <time>2017-07-10T11:48:11Z</time>
      </trkpt>
      <trkpt lat="43.35834" lon="2.74463">
        <ele>206.59628890969</ele>
        <time>2017-07-10T11:50:16Z</time>
      </trkpt>
      <trkpt lat="43.35839" lon="2.7446">
        <ele>206.59628890969</ele>
        <time>2017-07-10T11:50:16Z</time>
      </trkpt>
      <trkpt lat="43.35845" lon="2.74457">
        <ele>213.79719295266</ele>
        <time>2017-07-10T11:50:50Z</time>
      </trkpt>
      <trkpt lat="43.35866" lon="2.74446">
        <ele>220.54818397365</ele>
        <time>2017-07-10T11:50:50Z</time>
      </trkpt>
      <trkpt lat="43.36134" lon="2.74484">
        <ele>231.17096101628</ele>
        <time>2017-07-10T11:56:05Z</time>
      </trkpt>
      <trkpt lat="43.36142" lon="2.74489">
        <ele>231.17096101628</ele>
        <time>2017-07-10T11:56:09Z</time>
      </trkpt>
      <trkpt lat="43.36147" lon="2.74491">
        <ele>240.86814083866</ele>
        <time>2017-07-10T11:56:14Z</time>
      </trkpt>
      <trkpt lat="43.36151" lon="2.74494">
        <ele>240.86814083866</ele>
        <time>2017-07-10T11:56:19Z</time>
      </trkpt>
      <trkpt lat="43.36156" lon="2.74497">
        <ele>249.74087891064</ele>
        <time>2017-07-10T11:56:24Z</time>
      </trkpt>
      <trkpt lat="43.3616" lon="2.74501">
        <ele>249.74087891064</ele>
        <time>2017-07-10T11:56:29Z</time>
      </trkpt>
      <trkpt lat="43.36164" lon="2.74505">
        <ele>258.01475708387</ele>
        <time>2017-07-10T11:56:34Z</time>
      </trkpt>
      <trkpt lat="43.36167" lon="2.74509">
        <ele>258.01475708387</ele>
        <time>2017-07-10T11:56:39Z</time>
      </trkpt>
      <trkpt lat="43.3621" lon="2.74553">
        <ele>266.36184031773</ele>
        <time>2017-07-10T11:57:43Z</time>
      </trkpt>
      <trkpt lat="43.36217" lon="2.74561">
        <ele>273.97641300946</ele>
        <time>2017-07-10T11:57:43Z</time>
      </trkpt>
      <trkpt lat="43.36266" lon="2.74574">
        <ele>281.13880466625</ele>
        <time>2017-07-10T11:58:40Z</time>
      </trkpt>
      <trkpt lat="43.36269" lon="2.74574">
        <ele>281.13880466625</ele>
        <time>2017-07-10T11:58:44Z</time>
      </trkpt>
      <trkpt lat="43.36274" lon="2.74575">
        <ele>281.13880466625</ele>
        <time>2017-07-10T11:58:49Z</time>
      </trkpt>
      <trkpt lat="43.36275" lon="2.7458">
        <ele>287.8506925806</ele>
        <time>2017-07-10T11:58:59Z</time>
      </trkpt>
      <trkpt lat="43.36278" lon="2.7457">
        <ele>287.8506925806</ele>
        <time>2017-07-10T12:00:21Z</time>
      </trkpt>
      <trkpt lat="43.36287" lon="2.74569">
        <ele>294.17302038581</ele>
        <time>2017-07-10T12:02:29Z</time>
      </trkpt>
      <trkpt lat="43.36291" lon="2.74569">
        <ele>294.17302038581</ele>
        <time>2017-07-10T12:02:34Z</time>
      </trkpt>
      <trkpt lat="43.36327" lon="2.74602">
        <ele>299.74573125275</ele>
        <time>2017-07-10T12:03:35Z</time>
      </trkpt>
      <trkpt lat="43.36335" lon="2.74609">
        <ele>299.74573125275</ele>
        <time>2017-07-10T12:03:35Z</time>
      </trkpt>
      <trkpt lat="43.36364" lon="2.74628">
        <ele>304.82899087836</ele>
        <time>2017-07-10T12:04:17Z</time>
      </trkpt>
      <trkpt lat="43.36377" lon="2.74635">
        <ele>309.33415133024</ele>
        <time>2017-07-10T12:04:24Z</time>
      </trkpt>
      <trkpt lat="43.36386" lon="2.74636">
        <ele>309.33415133024</ele>
        <time>2017-07-10T12:04:33Z</time>
      </trkpt>
      <trkpt lat="43.36387" lon="2.74636">
        <ele>313.31101695006</ele>
        <time>2017-07-10T12:04:34Z</time>
      </trkpt>
      <trkpt lat="43.36394" lon="2.74636">
        <ele>313.31101695006</ele>
        <time>2017-07-10T12:04:44Z</time>
      </trkpt>
      <trkpt lat="43.36411" lon="2.74637">
        <ele>316.98080874618</ele>
        <time>2017-07-10T12:05:09Z</time>
      </trkpt>
      <trkpt lat="43.36421" lon="2.74632">
        <ele>320.08848601101</ele>
        <time>2017-07-10T12:05:09Z</time>
      </trkpt>
      <trkpt lat="43.36422" lon="2.74632">
        <ele>320.08848601101</ele>
        <time>2017-07-10T12:05:10Z</time>
      </trkpt>
      <trkpt lat="43.36515" lon="2.74607">
        <ele>324.07265233987</ele>
        <time>2017-07-10T12:06:44Z</time>
      </trkpt>
      <trkpt lat="43.36519" lon="2.74606">
        <ele>324.07265233987</ele>
        <time>2017-07-10T12:06:49Z</time>
      </trkpt>
      <trkpt lat="43.36527" lon="2.74605">
        <ele>327.85600681908</ele>
        <time>2017-07-10T12:07:08Z</time>
      </trkpt>
      <trkpt lat="43.3654" lon="2.746">
        <ele>331.2056621697</ele>
        <time>2017-07-10T12:07:25Z</time>
      </trkpt>
      <trkpt lat="43.36556" lon="2.74444">
        <ele>334.44112716262</ele>
        <time>2017-07-10T12:10:52Z</time>
      </trkpt>
      <trkpt lat="43.36541" lon="2.74434">
        <ele>336.96491483518</ele>
        <time>2017-07-10T12:11:26Z</time>
      </trkpt>
      <trkpt lat="43.36408" lon="2.7441">
        <ele>337.11512112145</ele>
        <time>2017-07-10T12:15:09Z</time>
      </trkpt>
      <trkpt lat="43.36392" lon="2.74388">
        <ele>335.88321370093</ele>
        <time>2017-07-10T12:15:47Z</time>
      </trkpt>
      <trkpt lat="43.36391" lon="2.74386">
        <ele>335.88321370093</ele>
        <time>2017-07-10T12:15:47Z</time>
      </trkpt>
      <trkpt lat="43.36369" lon="2.74365">
        <ele>332.64860621825</ele>
        <time>2017-07-10T12:16:18Z</time>
      </trkpt>
      <trkpt lat="43.36364" lon="2.74365">
        <ele>332.64860621825</ele>
        <time>2017-07-10T12:16:26Z</time>
      </trkpt>
      <trkpt lat="43.36357" lon="2.74357">
        <ele>328.55871526153</ele>
        <time>2017-07-10T12:16:56Z</time>
      </trkpt>
      <trkpt lat="43.36353" lon="2.74303">
        <ele>323.97234546369</ele>
        <time>2017-07-10T12:17:45Z</time>
      </trkpt>
      <trkpt lat="43.36355" lon="2.74294">
        <ele>323.97234546369</ele>
        <time>2017-07-10T12:17:46Z</time>
      </trkpt>
      <trkpt lat="43.36357" lon="2.74282">
        <ele>319.38201206504</ele>
        <time>2017-07-10T12:17:55Z</time>
      </trkpt>
      <trkpt lat="43.36357" lon="2.7428">
        <ele>319.38201206504</ele>
        <time>2017-07-10T12:17:55Z</time>
      </trkpt>
      <trkpt lat="43.36366" lon="2.74258">
        <ele>314.72471067299</ele>
        <time>2017-07-10T12:18:43Z</time>
      </trkpt>
      <trkpt lat="43.36372" lon="2.7426">
        <ele>314.72471067299</ele>
        <time>2017-07-10T12:18:43Z</time>
      </trkpt>
      <trkpt lat="43.36371" lon="2.74261">
        <ele>314.72471067299</ele>
        <time>2017-07-10T12:18:52Z</time>
      </trkpt>
      <trkpt lat="43.36385" lon="2.74273">
        <ele>310.12965268297</ele>
        <time>2017-07-10T12:19:09Z</time>
      </trkpt>
      <trkpt lat="43.36513" lon="2.74222">
        <ele>304.5479754875</ele>
        <time>2017-07-10T12:22:05Z</time>
      </trkpt>
      <trkpt lat="43.3652" lon="2.7422">
        <ele>304.5479754875</ele>
        <time>2017-07-10T12:22:06Z</time>
      </trkpt>
      <trkpt lat="43.3657" lon="2.7421">
        <ele>298.65469629136</ele>
        <time>2017-07-10T12:23:05Z</time>
      </trkpt>
      <trkpt lat="43.36574" lon="2.74209">
        <ele>298.65469629136</ele>
        <time>2017-07-10T12:23:09Z</time>
      </trkpt>
      <trkpt lat="43.36621" lon="2.74181">
        <ele>292.34022551765</ele>
        <time>2017-07-10T12:24:16Z</time>
      </trkpt>
      <trkpt lat="43.36628" lon="2.74177">
        <ele>292.34022551765</ele>
        <time>2017-07-10T12:24:16Z</time>
      </trkpt>
      <trkpt lat="43.36638" lon="2.74168">
        <ele>286.13838137981</ele>
        <time>2017-07-10T12:24:25Z</time>
      </trkpt>
      <trkpt lat="43.36699" lon="2.7412">
        <ele>279.17308079963</ele>
        <time>2017-07-10T12:25:58Z</time>
      </trkpt>
      <trkpt lat="43.36718" lon="2.74092">
        <ele>271.93217777374</ele>
        <time>2017-07-10T12:26:27Z</time>
      </trkpt>
      <trkpt lat="43.36744" lon="2.74068">
        <ele>264.1469578317</ele>
        <time>2017-07-10T12:27:03Z</time>
      </trkpt>
      <trkpt lat="43.36745" lon="2.74067">
        <ele>264.1469578317</ele>
        <time>2017-07-10T12:27:04Z</time>
      </trkpt>
      <trkpt lat="43.36748" lon="2.74064">
        <ele>264.1469578317</ele>
        <time>2017-07-10T12:27:10Z</time>
      </trkpt>
      <trkpt lat="43.36808" lon="2.73949">
        <ele>255.69924233396</ele>
        <time>2017-07-10T12:30:30Z</time>
      </trkpt>
      <trkpt lat="43.36808" lon="2.73948">
        <ele>255.69924233396</ele>
        <time>2017-07-10T12:30:30Z</time>
      </trkpt>
      <trkpt lat="43.36826" lon="2.73944">
        <ele>247.34582471527</ele>
        <time>2017-07-10T12:31:28Z</time>
      </trkpt>
      <trkpt lat="43.36828" lon="2.73895">
        <ele>251.11785267897</ele>
        <time>2017-07-10T12:32:59Z</time>
      </trkpt>
      <trkpt lat="43.3686" lon="2.73924">
        <ele>252.72609941627</ele>
        <time>2017-07-10T12:32:59Z</time>
      </trkpt>
      <trkpt lat="43.36904" lon="2.73929">
        <ele>252.17169806193</ele>
        <time>2017-07-10T12:33:21Z</time>
      </trkpt>
      <trkpt lat="43.36916" lon="2.73943">
        <ele>251.37825596278</ele>
        <time>2017-07-10T12:33:37Z</time>
      </trkpt>
      <trkpt lat="43.36921" lon="2.73949">
        <ele>251.37825596278</ele>
        <time>2017-07-10T12:33:40Z</time>
      </trkpt>
      <trkpt lat="43.36911" lon="2.73952">
        <ele>250.700959241</ele>
        <time>2017-07-10T12:33:57Z</time>
      </trkpt>
      <trkpt lat="43.36884" lon="2.73889">
        <ele>248.27719210665</ele>
        <time>2017-07-10T12:35:19Z</time>
      </trkpt>
      <trkpt lat="43.36874" lon="2.73883">
        <ele>245.15304452156</ele>
        <time>2017-07-10T12:35:35Z</time>
      </trkpt>
      <trkpt lat="43.3686" lon="2.73877">
        <ele>241.70820394593</ele>
        <time>2017-07-10T12:35:59Z</time>
      </trkpt>
      <trkpt lat="43.36847" lon="2.73883">
        <ele>237.1418624438</ele>
        <time>2017-07-10T12:36:39Z</time>
      </trkpt>
      <trkpt lat="43.36848" lon="2.73884">
        <ele>237.1418624438</ele>
        <time>2017-07-10T12:36:44Z</time>
      </trkpt>
      <trkpt lat="43.36786" lon="2.73933">
        <ele>231.8388924604</ele>
        <time>2017-07-10T12:38:53Z</time>
      </trkpt>
      <trkpt lat="43.36783" lon="2.73933">
        <ele>231.8388924604</ele>
        <time>2017-07-10T12:38:58Z</time>
      </trkpt>
      <trkpt lat="43.36791" lon="2.73937">
        <ele>227.06538804165</ele>
        <time>2017-07-10T12:39:16Z</time>
      </trkpt>
      <trkpt lat="43.36777" lon="2.73942">
        <ele>222.81064228599</ele>
        <time>2017-07-10T12:39:40Z</time>
      </trkpt>
      <trkpt lat="43.36771" lon="2.7395">
        <ele>222.81064228599</ele>
        <time>2017-07-10T12:39:49Z</time>
      </trkpt>
      <trkpt lat="43.36783" lon="2.73963">
        <ele>218.88985646071</ele>
        <time>2017-07-10T12:40:14Z</time>
      </trkpt>
      <trkpt lat="43.36788" lon="2.73975">
        <ele>215.28891533878</ele>
        <time>2017-07-10T12:40:40Z</time>
      </trkpt>
      <trkpt lat="43.36743" lon="2.73995">
        <ele>212.07982914675</ele>
        <time>2017-07-10T12:40:57Z</time>
      </trkpt>
      <trkpt lat="43.36741" lon="2.74005">
        <ele>212.07982914675</ele>
        <time>2017-07-10T12:40:57Z</time>
      </trkpt>
      <trkpt lat="43.36714" lon="2.74036">
        <ele>208.72246872049</ele>
        <time>2017-07-10T12:41:59Z</time>
      </trkpt>
      <trkpt lat="43.36708" lon="2.74042">
        <ele>208.72246872049</ele>
        <time>2017-07-10T12:42:04Z</time>
      </trkpt>
      <trkpt lat="43.367" lon="2.74052">
        <ele>205.65307321565</ele>
        <time>2017-07-10T12:42:14Z</time>
      </trkpt>
      <trkpt lat="43.36696" lon="2.74054">
        <ele>205.65307321565</ele>
        <time>2017-07-10T12:42:19Z</time>
      </trkpt>
      <trkpt lat="43.36686" lon="2.74058">
        <ele>202.52518838019</ele>
        <time>2017-07-10T12:42:35Z</time>
      </trkpt>
      <trkpt lat="43.36653" lon="2.74057">
        <ele>198.93107092247</ele>
        <time>2017-07-10T12:43:00Z</time>
      </trkpt>
      <trkpt lat="43.36639" lon="2.74057">
        <ele>195.34407794856</ele>
        <time>2017-07-10T12:43:15Z</time>
      </trkpt>
      <trkpt lat="43.36637" lon="2.74058">
        <ele>195.34407794856</ele>
        <time>2017-07-10T12:43:19Z</time>
      </trkpt>
      <trkpt lat="43.36606" lon="2.74067">
        <ele>191.32327548283</ele>
        <time>2017-07-10T12:43:45Z</time>
      </trkpt>
      <trkpt lat="43.36544" lon="2.74035">
        <ele>188.57939858801</ele>
        <time>2017-07-10T12:45:30Z</time>
      </trkpt>
      <trkpt lat="43.36541" lon="2.74024">
        <ele>188.57939858801</ele>
        <time>2017-07-10T12:45:30Z</time>
      </trkpt>
      <trkpt lat="43.36475" lon="2.73914">
        <ele>187.48300676717</ele>
        <time>2017-07-10T12:47:15Z</time>
      </trkpt>
      <trkpt lat="43.36472" lon="2.7391">
        <ele>187.48300676717</ele>
        <time>2017-07-10T12:47:23Z</time>
      </trkpt>
      <trkpt lat="43.36448" lon="2.73855">
        <ele>187.1474959262</ele>
        <time>2017-07-10T12:48:09Z</time>
      </trkpt>
      <trkpt lat="43.36439" lon="2.73854">
        <ele>187.15244036901</ele>
        <time>2017-07-10T12:48:39Z</time>
      </trkpt>
      <trkpt lat="43.36439" lon="2.73854">
        <ele>187.15244036901</ele>
        <time>2017-07-10T12:48:44Z</time>
      </trkpt>
      <trkpt lat="43.36436" lon="2.7385">
        <ele>187.15244036901</ele>
        <time>2017-07-10T12:48:49Z</time>
      </trkpt>
      <trkpt lat="43.36436" lon="2.7385">
        <ele>187.15244036901</ele>
        <time>2017-07-10T12:48:54Z</time>
      </trkpt>
      <trkpt lat="43.36432" lon="2.73844">
        <ele>187.52497630805</ele>
        <time>2017-07-10T12:49:04Z</time>
      </trkpt>
      <trkpt lat="43.36433" lon="2.73843">
        <ele>187.52497630805</ele>
        <time>2017-07-10T12:49:15Z</time>
      </trkpt>
      <trkpt lat="43.36418" lon="2.73844">
        <ele>188.0439639914</ele>
        <time>2017-07-10T12:50:08Z</time>
      </trkpt>
      <trkpt lat="43.36412" lon="2.73871">
        <ele>188.97945685768</ele>
        <time>2017-07-10T12:50:49Z</time>
      </trkpt>
      <trkpt lat="43.36395" lon="2.73895">
        <ele>190.50826825828</ele>
        <time>2017-07-10T12:51:14Z</time>
      </trkpt>
      <trkpt lat="43.36394" lon="2.73922">
        <ele>192.70595405547</ele>
        <time>2017-07-10T12:51:55Z</time>
      </trkpt>
      <trkpt lat="43.36393" lon="2.73927">
        <ele>192.70595405547</ele>
        <time>2017-07-10T12:51:55Z</time>
      </trkpt>
      <trkpt lat="43.36388" lon="2.73934">
        <ele>195.72701957804</ele>
        <time>2017-07-10T12:52:13Z</time>
      </trkpt>
      <trkpt lat="43.36375" lon="2.73954">
        <ele>199.32315299364</ele>
        <time>2017-07-10T12:52:30Z</time>
      </trkpt>
      <trkpt lat="43.36372" lon="2.73962">
        <ele>199.32315299364</ele>
        <time>2017-07-10T12:52:30Z</time>
      </trkpt>
      <trkpt lat="43.36371" lon="2.74007">
        <ele>204.25706464014</ele>
        <time>2017-07-10T12:54:31Z</time>
      </trkpt>
      <trkpt lat="43.36371" lon="2.74007">
        <ele>204.25706464014</ele>
        <time>2017-07-10T12:54:36Z</time>
      </trkpt>
      <trkpt lat="43.36336" lon="2.74033">
        <ele>209.84823362399</ele>
        <time>2017-07-10T12:58:57Z</time>
      </trkpt>
      <trkpt lat="43.36273" lon="2.74031">
        <ele>215.43557254416</ele>
        <time>2017-07-10T12:59:22Z</time>
      </trkpt>
      <trkpt lat="43.36246" lon="2.74036">
        <ele>220.85348793187</ele>
        <time>2017-07-10T12:59:49Z</time>
      </trkpt>
      <trkpt lat="43.36242" lon="2.74038">
        <ele>220.85348793187</ele>
        <time>2017-07-10T12:59:54Z</time>
      </trkpt>
      <trkpt lat="43.36094" lon="2.7412">
        <ele>224.89720310314</ele>
        <time>2017-07-10T13:03:06Z</time>
      </trkpt>
      <trkpt lat="43.36058" lon="2.741">
        <ele>228.74597937894</ele>
        <time>2017-07-10T13:03:54Z</time>
      </trkpt>
      <trkpt lat="43.36065" lon="2.74106">
        <ele>228.74597937894</ele>
        <time>2017-07-10T13:04:25Z</time>
      </trkpt>
      <trkpt lat="43.36209" lon="2.74062">
        <ele>232.29713463848</ele>
        <time>2017-07-10T13:07:26Z</time>
      </trkpt>
      <trkpt lat="43.36214" lon="2.74061">
        <ele>232.29713463848</ele>
        <time>2017-07-10T13:07:26Z</time>
      </trkpt>
      <trkpt lat="43.36221" lon="2.74058">
        <ele>235.7737353773</ele>
        <time>2017-07-10T13:07:39Z</time>
      </trkpt>
      <trkpt lat="43.36276" lon="2.74031">
        <ele>241.04032279002</ele>
        <time>2017-07-10T13:08:51Z</time>
      </trkpt>
      <trkpt lat="43.36329" lon="2.73939">
        <ele>247.15370437836</ele>
        <time>2017-07-10T13:10:05Z</time>
      </trkpt>
      <trkpt lat="43.36329" lon="2.73938">
        <ele>247.15370437836</ele>
        <time>2017-07-10T13:10:05Z</time>
      </trkpt>
      <trkpt lat="43.36334" lon="2.73923">
        <ele>252.97859496709</ele>
        <time>2017-07-10T13:10:16Z</time>
      </trkpt>
      <trkpt lat="43.3635" lon="2.73784">
        <ele>259.29458389205</ele>
        <time>2017-07-10T13:11:54Z</time>
      </trkpt>
      <trkpt lat="43.36355" lon="2.73707">
        <ele>264.69018826587</ele>
        <time>2017-07-10T13:12:48Z</time>
      </trkpt>
      <trkpt lat="43.36355" lon="2.73692">
        <ele>269.48915044608</ele>
        <time>2017-07-10T13:12:48Z</time>
      </trkpt>
      <trkpt lat="43.3634" lon="2.73563">
        <ele>273.10009416993</ele>
        <time>2017-07-10T13:14:16Z</time>
      </trkpt>
      <trkpt lat="43.36339" lon="2.73554">
        <ele>273.10009416993</ele>
        <time>2017-07-10T13:14:16Z</time>
      </trkpt>
      <trkpt lat="43.3633" lon="2.73495">
        <ele>276.72268028879</ele>
        <time>2017-07-10T13:15:03Z</time>
      </trkpt>
      <trkpt lat="43.36324" lon="2.73486">
        <ele>280.79157882048</ele>
        <time>2017-07-10T13:15:44Z</time>
      </trkpt>
      <trkpt lat="43.36325" lon="2.73481">
        <ele>280.79157882048</ele>
        <time>2017-07-10T13:15:49Z</time>
      </trkpt>
      <trkpt lat="43.36327" lon="2.73475">
        <ele>284.54146706456</ele>
        <time>2017-07-10T13:15:59Z</time>
      </trkpt>
      <trkpt lat="43.36328" lon="2.73465">
        <ele>284.54146706456</ele>
        <time>2017-07-10T13:15:59Z</time>
      </trkpt>
      <trkpt lat="43.36332" lon="2.73455">
        <ele>287.97078419066</ele>
        <time>2017-07-10T13:16:16Z</time>
      </trkpt>
      <trkpt lat="43.36337" lon="2.73439">
        <ele>291.1947610582</ele>
        <time>2017-07-10T13:17:01Z</time>
      </trkpt>
      <trkpt lat="43.36348" lon="2.73398">
        <ele>293.97535020662</ele>
        <time>2017-07-10T13:17:36Z</time>
      </trkpt>
      <trkpt lat="43.36352" lon="2.73387">
        <ele>296.39633615192</ele>
        <time>2017-07-10T13:17:36Z</time>
      </trkpt>
      <trkpt lat="43.36356" lon="2.73373">
        <ele>298.47916276601</ele>
        <time>2017-07-10T13:17:53Z</time>
      </trkpt>
      <trkpt lat="43.36358" lon="2.7336">
        <ele>300.21625603505</ele>
        <time>2017-07-10T13:17:53Z</time>
      </trkpt>
      <trkpt lat="43.36364" lon="2.7335">
        <ele>301.61638842777</ele>
        <time>2017-07-10T13:18:09Z</time>
      </trkpt>
      <trkpt lat="43.36369" lon="2.73342">
        <ele>301.61638842777</ele>
        <time>2017-07-10T13:18:09Z</time>
      </trkpt>
      <trkpt lat="43.36373" lon="2.7333">
        <ele>302.76107364927</ele>
        <time>2017-07-10T13:18:26Z</time>
      </trkpt>
      <trkpt lat="43.36375" lon="2.73318">
        <ele>303.65485676575</ele>
        <time>2017-07-10T13:18:26Z</time>
      </trkpt>
      <trkpt lat="43.3641" lon="2.73252">
        <ele>304.50473964124</ele>
        <time>2017-07-10T13:19:24Z</time>
      </trkpt>
      <trkpt lat="43.36415" lon="2.73248">
        <ele>304.50473964124</ele>
        <time>2017-07-10T13:19:24Z</time>
      </trkpt>
      <trkpt lat="43.36439" lon="2.73233">
        <ele>305.20031018053</ele>
        <time>2017-07-10T13:19:47Z</time>
      </trkpt>
      <trkpt lat="43.3644" lon="2.73231">
        <ele>305.20031018053</ele>
        <time>2017-07-10T13:19:49Z</time>
      </trkpt>
      <trkpt lat="43.36446" lon="2.73213">
        <ele>305.82731937612</ele>
        <time>2017-07-10T13:19:59Z</time>
      </trkpt>
      <trkpt lat="43.36464" lon="2.73175">
        <ele>307.05651533504</ele>
        <time>2017-07-10T13:20:31Z</time>
      </trkpt>
      <trkpt lat="43.36468" lon="2.73165">
        <ele>307.05651533504</ele>
        <time>2017-07-10T13:20:41Z</time>
      </trkpt>
      <trkpt lat="43.365" lon="2.73074">
        <ele>311.36694685317</ele>
        <time>2017-07-10T13:21:57Z</time>
      </trkpt>
      <trkpt lat="43.36522" lon="2.72979">
        <ele>317.30023520713</ele>
        <time>2017-07-10T13:23:09Z</time>
      </trkpt>
      <trkpt lat="43.36542" lon="2.72913">
        <ele>322.57848418665</ele>
        <time>2017-07-10T13:23:54Z</time>
      </trkpt>
      <trkpt lat="43.36546" lon="2.72908">
        <ele>322.57848418665</ele>
        <time>2017-07-10T13:23:59Z</time>
      </trkpt>
      <trkpt lat="43.36548" lon="2.72899">
        <ele>327.35573454722</ele>
        <time>2017-07-10T13:24:09Z</time>
      </trkpt>
      <trkpt lat="43.36547" lon="2.72896">
        <ele>327.35573454722</ele>
        <time>2017-07-10T13:24:14Z</time>
      </trkpt>
      <trkpt lat="43.36546" lon="2.72895">
        <ele>327.35573454722</ele>
        <time>2017-07-10T13:24:54Z</time>
      </trkpt>
      <trkpt lat="43.36546" lon="2.72895">
        <ele>327.35573454722</ele>
        <time>2017-07-10T13:24:59Z</time>
      </trkpt>
      <trkpt lat="43.36556" lon="2.72888">
        <ele>332.12221406815</ele>
        <time>2017-07-10T13:26:09Z</time>
      </trkpt>
      <trkpt lat="43.36565" lon="2.72879">
        <ele>336.33803938361</ele>
        <time>2017-07-10T13:26:09Z</time>
      </trkpt>
      <trkpt lat="43.36514" lon="2.72885">
        <ele>340.23973933861</ele>
        <time>2017-07-10T13:27:16Z</time>
      </trkpt>
      <trkpt lat="43.36476" lon="2.72931">
        <ele>344.17728941216</ele>
        <time>2017-07-10T13:27:59Z</time>
      </trkpt>
      <trkpt lat="43.3647" lon="2.72935">
        <ele>344.17728941216</ele>
        <time>2017-07-10T13:27:59Z</time>
      </trkpt>
      <trkpt lat="43.3645" lon="2.72947">
        <ele>347.75453666525</ele>
        <time>2017-07-10T13:28:19Z</time>
      </trkpt>
      <trkpt lat="43.36395" lon="2.73002">
        <ele>351.15329421118</ele>
        <time>2017-07-10T13:29:29Z</time>
      </trkpt>
      <trkpt lat="43.36396" lon="2.73003">
        <ele>351.15329421118</ele>
        <time>2017-07-10T13:29:34Z</time>
      </trkpt>
      <trkpt lat="43.36389" lon="2.7301">
        <ele>354.06717608151</ele>
        <time>2017-07-10T13:29:45Z</time>
      </trkpt>
      <trkpt lat="43.36353" lon="2.73035">
        <ele>356.22828644385</ele>
        <time>2017-07-10T13:30:21Z</time>
      </trkpt>
      <trkpt lat="43.36331" lon="2.73091">
        <ele>357.57806184361</ele>
        <time>2017-07-10T13:31:00Z</time>
      </trkpt>
      <trkpt lat="43.36313" lon="2.73143">
        <ele>357.79088144699</ele>
        <time>2017-07-10T13:31:36Z</time>
      </trkpt>
      <trkpt lat="43.3631" lon="2.73153">
        <ele>357.79088144699</ele>
        <time>2017-07-10T13:31:44Z</time>
      </trkpt>
      <trkpt lat="43.363" lon="2.73172">
        <ele>357.11600612394</ele>
        <time>2017-07-10T13:31:58Z</time>
      </trkpt>
      <trkpt lat="43.36299" lon="2.73174">
        <ele>357.11600612394</ele>
        <time>2017-07-10T13:31:59Z</time>
      </trkpt>
      <trkpt lat="43.36274" lon="2.73233">
        <ele>354.97996924207</ele>
        <time>2017-07-10T13:32:54Z</time>
      </trkpt>
      <trkpt lat="43.36283" lon="2.73239">
        <ele>353.24785472787</ele>
        <time>2017-07-10T13:33:09Z</time>
      </trkpt>
      <trkpt lat="43.36282" lon="2.73239">
        <ele>353.24785472787</ele>
        <time>2017-07-10T13:33:14Z</time>
      </trkpt>
      <trkpt lat="43.36282" lon="2.73241">
        <ele>353.24785472787</ele>
        <time>2017-07-10T13:33:34Z</time>
      </trkpt>
      <trkpt lat="43.36281" lon="2.73243">
        <ele>353.24785472787</ele>
        <time>2017-07-10T13:33:39Z</time>
      </trkpt>
      <trkpt lat="43.36278" lon="2.73251">
        <ele>351.87407443802</ele>
        <time>2017-07-10T13:33:54Z</time>
      </trkpt>
      <trkpt lat="43.36276" lon="2.73256">
        <ele>351.87407443802</ele>
        <time>2017-07-10T13:33:59Z</time>
      </trkpt>
      <trkpt lat="43.36276" lon="2.73256">
        <ele>351.87407443802</ele>
        <time>2017-07-10T13:34:04Z</time>
      </trkpt>
      <trkpt lat="43.36271" lon="2.73267">
        <ele>350.55598115435</ele>
        <time>2017-07-10T13:34:49Z</time>
      </trkpt>
      <trkpt lat="43.3627" lon="2.7327">
        <ele>350.55598115435</ele>
        <time>2017-07-10T13:35:19Z</time>
      </trkpt>
      <trkpt lat="43.36269" lon="2.73277">
        <ele>350.55598115435</ele>
        <time>2017-07-10T13:35:24Z</time>
      </trkpt>
      <trkpt lat="43.36267" lon="2.73287">
        <ele>349.05619697311</ele>
        <time>2017-07-10T13:35:39Z</time>
      </trkpt>
      <trkpt lat="43.36267" lon="2.73295">
        <ele>349.05619697311</ele>
        <time>2017-07-10T13:35:44Z</time>
      </trkpt>
      <trkpt lat="43.36265" lon="2.73302">
        <ele>347.38579532782</ele>
        <time>2017-07-10T13:35:49Z</time>
      </trkpt>
      <trkpt lat="43.36262" lon="2.73315">
        <ele>345.59864289569</ele>
        <time>2017-07-10T13:35:57Z</time>
      </trkpt>
      <trkpt lat="43.3626" lon="2.73319">
        <ele>345.59864289569</ele>
        <time>2017-07-10T13:35:59Z</time>
      </trkpt>
      <trkpt lat="43.36257" lon="2.73341">
        <ele>343.70160860168</ele>
        <time>2017-07-10T13:36:21Z</time>
      </trkpt>
      <trkpt lat="43.36253" lon="2.73353">
        <ele>341.71561325186</ele>
        <time>2017-07-10T13:36:21Z</time>
      </trkpt>
      <trkpt lat="43.36241" lon="2.73442">
        <ele>339.63127884925</ele>
        <time>2017-07-10T13:37:12Z</time>
      </trkpt>
      <trkpt lat="43.36242" lon="2.73472">
        <ele>337.25263328891</ele>
        <time>2017-07-10T13:38:06Z</time>
      </trkpt>
      <trkpt lat="43.36242" lon="2.73478">
        <ele>337.25263328891</ele>
        <time>2017-07-10T13:38:34Z</time>
      </trkpt>
      <trkpt lat="43.36242" lon="2.73487">
        <ele>334.81661092136</ele>
        <time>2017-07-10T13:38:39Z</time>
      </trkpt>
      <trkpt lat="43.36241" lon="2.73495">
        <ele>334.81661092136</ele>
        <time>2017-07-10T13:38:44Z</time>
      </trkpt>
      <trkpt lat="43.3624" lon="2.73503">
        <ele>332.39853106406</ele>
        <time>2017-07-10T13:38:49Z</time>
      </trkpt>
      <trkpt lat="43.36241" lon="2.73511">
        <ele>332.39853106406</ele>
        <time>2017-07-10T13:38:54Z</time>
      </trkpt>
      <trkpt lat="43.36242" lon="2.73519">
        <ele>329.96697194292</ele>
        <time>2017-07-10T13:38:59Z</time>
      </trkpt>
      <trkpt lat="43.36242" lon="2.73528">
        <ele>329.96697194292</ele>
        <time>2017-07-10T13:39:04Z</time>
      </trkpt>
      <trkpt lat="43.36242" lon="2.73536">
        <ele>327.37727019589</ele>
        <time>2017-07-10T13:39:09Z</time>
      </trkpt>
      <trkpt lat="43.36241" lon="2.73546">
        <ele>327.37727019589</ele>
        <time>2017-07-10T13:39:14Z</time>
      </trkpt>
      <trkpt lat="43.36241" lon="2.73557">
        <ele>324.71168437661</ele>
        <time>2017-07-10T13:39:21Z</time>
      </trkpt>
      <trkpt lat="43.36241" lon="2.73588">
        <ele>321.91661254077</ele>
        <time>2017-07-10T13:39:46Z</time>
      </trkpt>
      <trkpt lat="43.36241" lon="2.73606">
        <ele>319.12975381753</ele>
        <time>2017-07-10T13:39:54Z</time>
      </trkpt>
      <trkpt lat="43.36241" lon="2.73612">
        <ele>319.12975381753</ele>
        <time>2017-07-10T13:39:54Z</time>
      </trkpt>
      <trkpt lat="43.36241" lon="2.73622">
        <ele>316.56477956861</ele>
        <time>2017-07-10T13:40:00Z</time>
      </trkpt>
      <trkpt lat="43.36242" lon="2.73659">
        <ele>314.47632178935</ele>
        <time>2017-07-10T13:40:31Z</time>
      </trkpt>
      <trkpt lat="43.36237" lon="2.73783">
        <ele>311.5566079301</ele>
        <time>2017-07-10T13:41:35Z</time>
      </trkpt>
      <trkpt lat="43.36238" lon="2.73824">
        <ele>308.41168743454</ele>
        <time>2017-07-10T13:42:07Z</time>
      </trkpt>
      <trkpt lat="43.36222" lon="2.73961">
        <ele>303.80194477362</ele>
        <time>2017-07-10T13:43:44Z</time>
      </trkpt>
      <trkpt lat="43.3621" lon="2.73957">
        <ele>299.37829587837</ele>
        <time>2017-07-10T13:43:54Z</time>
      </trkpt>
      <trkpt lat="43.36203" lon="2.73953">
        <ele>299.37829587837</ele>
        <time>2017-07-10T13:43:54Z</time>
      </trkpt>
      <trkpt lat="43.36197" lon="2.73949">
        <ele>295.21392909622</ele>
        <time>2017-07-10T13:43:59Z</time>
      </trkpt>
      <trkpt lat="43.36192" lon="2.73945">
        <ele>295.21392909622</ele>
        <time>2017-07-10T13:44:04Z</time>
      </trkpt>
      <trkpt lat="43.36096" lon="2.73905">
        <ele>289.73264053838</ele>
        <time>2017-07-10T13:45:30Z</time>
      </trkpt>
      <trkpt lat="43.36089" lon="2.73898">
        <ele>289.73264053838</ele>
        <time>2017-07-10T13:45:47Z</time>
      </trkpt>
      <trkpt lat="43.35961" lon="2.73865">
        <ele>283.91275041481</ele>
        <time>2017-07-10T13:47:42Z</time>
      </trkpt>
      <trkpt lat="43.35954" lon="2.73878">
        <ele>278.74767877043</ele>
        <time>2017-07-10T13:47:45Z</time>
      </trkpt>
      <trkpt lat="43.3595" lon="2.73885">
        <ele>278.74767877043</ele>
        <time>2017-07-10T13:48:00Z</time>
      </trkpt>
      <trkpt lat="43.35938" lon="2.739">
        <ele>274.2332589363</ele>
        <time>2017-07-10T13:48:04Z</time>
      </trkpt>
      <trkpt lat="43.35933" lon="2.73905">
        <ele>274.2332589363</ele>
        <time>2017-07-10T13:48:09Z</time>
      </trkpt>
      <trkpt lat="43.35865" lon="2.74029">
        <ele>268.54752987902</ele>
        <time>2017-07-10T13:50:07Z</time>
      </trkpt>
      <trkpt lat="43.35842" lon="2.74033">
        <ele>262.78651832177</ele>
        <time>2017-07-10T13:50:16Z</time>
      </trkpt>
      <trkpt lat="43.3583" lon="2.74029">
        <ele>257.2304906707</ele>
        <time>2017-07-10T13:50:50Z</time>
      </trkpt>
      <trkpt lat="43.35789" lon="2.74044">
        <ele>251.70571908774</ele>
        <time>2017-07-10T13:51:02Z</time>
      </trkpt>
      <trkpt lat="43.35764" lon="2.74062">
        <ele>246.48298081447</ele>
        <time>2017-07-10T13:51:25Z</time>
      </trkpt>
      <trkpt lat="43.35763" lon="2.74066">
        <ele>246.48298081447</ele>
        <time>2017-07-10T13:51:29Z</time>
      </trkpt>
      <trkpt lat="43.35765" lon="2.74071">
        <ele>246.48298081447</ele>
        <time>2017-07-10T13:51:34Z</time>
      </trkpt>
      <trkpt lat="43.35763" lon="2.74074">
        <ele>241.6388767351</ele>
        <time>2017-07-10T13:51:39Z</time>
      </trkpt>
      <trkpt lat="43.3576" lon="2.74075">
        <ele>241.6388767351</ele>
        <time>2017-07-10T13:51:44Z</time>
      </trkpt>
      <trkpt lat="43.35758" lon="2.74076">
        <ele>241.6388767351</ele>
        <time>2017-07-10T13:51:49Z</time>
      </trkpt>
      <trkpt lat="43.35756" lon="2.74077">
        <ele>241.6388767351</ele>
        <time>2017-07-10T13:51:54Z</time>
      </trkpt>
      <trkpt lat="43.35753" lon="2.74078">
        <ele>237.38692746482</ele>
        <time>2017-07-10T13:51:59Z</time>
      </trkpt>
      <trkpt lat="43.35752" lon="2.7408">
        <ele>237.38692746482</ele>
        <time>2017-07-10T13:52:04Z</time>
      </trkpt>
      <trkpt lat="43.3575" lon="2.74081">
        <ele>237.38692746482</ele>
        <time>2017-07-10T13:52:09Z</time>
      </trkpt>
      <trkpt lat="43.35747" lon="2.74083">
        <ele>237.38692746482</ele>
        <time>2017-07-10T13:52:14Z</time>
      </trkpt>
      <trkpt lat="43.35746" lon="2.74083">
        <ele>237.38692746482</ele>
        <time>2017-07-10T13:52:24Z</time>
      </trkpt>
      <trkpt lat="43.35744" lon="2.74084">
        <ele>233.69223413821</ele>
        <time>2017-07-10T13:52:29Z</time>
      </trkpt>
      <trkpt lat="43.35743" lon="2.74085">
        <ele>233.69223413821</ele>
        <time>2017-07-10T13:52:34Z</time>
      </trkpt>
      <trkpt lat="43.35742" lon="2.74093">
        <ele>233.69223413821</ele>
        <time>2017-07-10T13:52:44Z</time>
      </trkpt>
      <trkpt lat="43.35742" lon="2.741">
        <ele>230.5204147992</ele>
        <time>2017-07-10T13:52:49Z</time>
      </trkpt>
      <trkpt lat="43.3574" lon="2.7411">
        <ele>230.5204147992</ele>
        <time>2017-07-10T13:52:54Z</time>
      </trkpt>
      <trkpt lat="43.35726" lon="2.74127">
        <ele>226.68478835361</ele>
        <time>2017-07-10T13:52:59Z</time>
      </trkpt>
      <trkpt lat="43.35669" lon="2.74194">
        <ele>222.730124436</ele>
        <time>2017-07-10T13:54:17Z</time>
      </trkpt>
      <trkpt lat="43.35633" lon="2.74316">
        <ele>217.35968178162</ele>
        <time>2017-07-10T13:55:50Z</time>
      </trkpt>
      <trkpt lat="43.35602" lon="2.74355">
        <ele>211.58042435837</ele>
        <time>2017-07-10T13:56:21Z</time>
      </trkpt>
      <trkpt lat="43.35601" lon="2.74359">
        <ele>211.58042435837</ele>
        <time>2017-07-10T13:56:24Z</time>
      </trkpt>
      <trkpt lat="43.356" lon="2.74408">
        <ele>206.09549687538</ele>
        <time>2017-07-10T13:57:20Z</time>
      </trkpt>
      <trkpt lat="43.35602" lon="2.74435">
        <ele>200.2005079507</ele>
        <time>2017-07-10T13:58:43Z</time>
      </trkpt>
      <trkpt lat="43.35598" lon="2.74439">
        <ele>200.2005079507</ele>
        <time>2017-07-10T13:58:45Z</time>
      </trkpt>
      <trkpt lat="43.35536" lon="2.74505">
        <ele>193.28678213523</ele>
        <time>2017-07-10T14:00:24Z</time>
      </trkpt>
      <trkpt lat="43.35532" lon="2.74512">
        <ele>193.28678213523</ele>
        <time>2017-07-10T14:00:49Z</time>
      </trkpt>
      <trkpt lat="43.35521" lon="2.74524">
        <ele>187.09858269623</ele>
        <time>2017-07-10T14:01:05Z</time>
      </trkpt>
      <trkpt lat="43.35486" lon="2.74586">
        <ele>181.66437346033</ele>
        <time>2017-07-10T14:02:12Z</time>
      </trkpt>
      <trkpt lat="43.35487" lon="2.74586">
        <ele>181.66437346033</ele>
        <time>2017-07-10T14:02:14Z</time>
      </trkpt>
      <trkpt lat="43.35468" lon="2.74607">
        <ele>176.77742959379</ele>
        <time>2017-07-10T14:02:48Z</time>
      </trkpt>
      <trkpt lat="43.35464" lon="2.74612">
        <ele>176.77742959379</ele>
        <time>2017-07-10T14:02:49Z</time>
      </trkpt>
      <trkpt lat="43.35461" lon="2.74616">
        <ele>172.51809181931</ele>
        <time>2017-07-10T14:02:54Z</time>
      </trkpt>
      <trkpt lat="43.35457" lon="2.74619">
        <ele>172.51809181931</ele>
        <time>2017-07-10T14:02:59Z</time>
      </trkpt>
      <trkpt lat="43.35452" lon="2.74619">
        <ele>168.9730679033</ele>
        <time>2017-07-10T14:03:04Z</time>
      </trkpt>
      <trkpt lat="43.3545" lon="2.74619">
        <ele>168.9730679033</ele>
        <time>2017-07-10T14:03:09Z</time>
      </trkpt>
      <trkpt lat="43.3545" lon="2.74618">
        <ele>168.9730679033</ele>
        <time>2017-07-10T14:03:19Z</time>
      </trkpt>
    </trkseg>
  </trk>
</gpx>